Time;durP1;ratioP1;P1;durP2;ratioP2;P2;SDS_P1;SDS_P2;PMS_P1;PMS_P2;Temp;Humidity;BMP_temperature;BMP_pressure;BME280_temperature;BME280_humidity;BME280_pressure;Samples;Min_cycle;Max_cycle;Signal;HPM_P1;HPM_P2
2022/01/12 00:00:32;;;;;;;8.87;8.07;;;;;;;;;;5032325;28;20861;-78
2022/01/12 00:02:59;;;;;;;9.27;8.40;;;;;;;;;;5038473;28;20434;-77
2022/01/12 00:05:26;;;;;;;8.80;7.93;;;;;;;;;;5051737;28;20865;-78
2022/01/12 00:07:53;;;;;;;9.13;8.27;;;;;;;;;;5051559;28;20231;-78
2022/01/12 00:10:21;;;;;;;9.57;8.03;;;;;;;;;;5051336;28;20536;-78
2022/01/12 00:12:48;;;;;;;8.77;7.93;;;;;;;;;;5045132;28;20447;-78
2022/01/12 00:15:17;;;;;;;9.83;8.43;;;;;;;;;;5052331;28;20934;-78
2022/01/12 00:17:44;;;;;;;8.40;7.50;;;;;;;;;;5054714;28;20474;-78
2022/01/12 00:20:11;;;;;;;9.13;8.33;;;;;;;;;;5052825;28;20442;-78
2022/01/12 00:22:40;;;;;;;8.83;8.07;;;;;;;;;;5048228;28;20463;-78
2022/01/12 00:25:24;;;;;;;10.30;9.23;;;;;;;;;;5048193;28;20481;-79
2022/01/12 00:33:22;;;;;;;9.13;8.20;;;;;;;;;;5031567;28;20406;-78
2022/01/12 00:35:50;;;;;;;9.17;8.23;;;;;;;;;;5049512;28;20446;-78
2022/01/12 00:38:18;;;;;;;9.33;8.27;;;;;;;;;;5054854;28;20462;-79
2022/01/12 00:40:47;;;;;;;11.00;8.80;;;;;;;;;;5052708;28;20442;-77
2022/01/12 00:43:14;;;;;;;10.60;8.80;;;;;;;;;;5051167;28;20434;-78
2022/01/12 00:45:44;;;;;;;14.07;8.67;;;;;;;;;;5051173;28;20481;-77
2022/01/12 00:48:11;;;;;;;9.10;8.20;;;;;;;;;;5050714;28;20562;-78
2022/01/12 00:50:39;;;;;;;9.50;8.43;;;;;;;;;;5050634;28;20446;-77
2022/01/12 00:53:06;;;;;;;9.80;8.90;;;;;;;;;;5051385;28;20461;-78
2022/01/12 00:55:33;;;;;;;10.17;9.03;;;;;;;;;;5051727;28;20446;-78
2022/01/12 00:58:00;;;;;;;9.57;8.77;;;;;;;;;;5051827;28;20457;-78
2022/01/12 01:00:28;;;;;;;52.03;31.40;;;;;;;;;;5041212;28;20458;-78
2022/01/12 01:02:57;;;;;;;34.23;23.17;;;;;;;;;;5047559;28;20438;-78
2022/01/12 01:05:24;;;;;;;48.97;31.00;;;;;;;;;;5053611;28;20477;-78
2022/01/12 01:07:52;;;;;;;51.93;32.57;;;;;;;;;;5052943;28;20480;-78
2022/01/12 01:10:33;;;;;;;13.87;11.37;;;;;;;;;;5050769;28;20487;-78
2022/01/12 01:13:00;;;;;;;10.33;8.90;;;;;;;;;;5051650;28;20446;-78
2022/01/12 01:15:42;;;;;;;10.07;9.10;;;;;;;;;;5051809;28;20457;-78
2022/01/12 01:26:36;;;;;;;9.00;8.10;;;;;;;;;;5008349;28;20513;-78
2022/01/12 01:29:03;;;;;;;9.70;8.70;;;;;;;;;;5040921;28;20460;-78
2022/01/12 01:31:32;;;;;;;9.23;8.37;;;;;;;;;;5051430;28;20438;-78
2022/01/12 01:34:06;;;;;;;9.80;8.80;;;;;;;;;;5051665;28;20446;-79
2022/01/12 01:36:33;;;;;;;14.20;10.00;;;;;;;;;;5051084;28;20469;-78
2022/01/12 01:39:00;;;;;;;10.30;9.40;;;;;;;;;;5050956;28;20457;-78
2022/01/12 01:41:27;;;;;;;9.40;8.43;;;;;;;;;;5050685;28;20939;-78
2022/01/12 01:55:05;;;;;;;10.60;9.57;;;;;;;;;;5050165;28;20414;-77
2022/01/12 01:57:32;;;;;;;9.07;8.33;;;;;;;;;;5051295;28;20458;-80
2022/01/12 01:59:59;;;;;;;9.40;8.43;;;;;;;;;;5050765;28;20477;-77
2022/01/12 02:02:26;;;;;;;9.33;8.43;;;;;;;;;;5062207;28;20903;-78
2022/01/12 02:04:54;;;;;;;9.87;8.87;;;;;;;;;;5058179;28;20478;-78
2022/01/12 02:07:22;;;;;;;10.07;9.17;;;;;;;;;;5051166;28;20520;-78
2022/01/12 02:09:49;;;;;;;9.57;8.67;;;;;;;;;;5050751;28;20442;-77
2022/01/12 02:12:16;;;;;;;9.10;8.20;;;;;;;;;;5050067;28;20862;-77
2022/01/12 02:14:43;;;;;;;12.60;9.40;;;;;;;;;;5050205;28;20442;-78
2022/01/12 02:17:16;;;;;;;11.63;9.80;;;;;;;;;;5049651;28;20461;-77
2022/01/12 02:19:52;;;;;;;11.00;8.97;;;;;;;;;;5049822;28;20446;-77
2022/01/12 02:36:13;;;;;;;11.00;9.90;;;;;;;;;;5059019;28;20470;-76
2022/01/12 02:41:26;;;;;;;9.90;8.90;;;;;;;;;;5064281;28;20492;-78
2022/01/12 02:55:11;;;;;;;10.53;9.50;;;;;;;;;;5007530;28;20447;-78
2022/01/12 02:57:38;;;;;;;12.13;10.87;;;;;;;;;;5032510;28;20523;-77
2022/01/12 03:00:09;;;;;;;10.90;9.80;;;;;;;;;;5057026;28;20445;-78
2022/01/12 03:02:38;;;;;;;11.80;10.53;;;;;;;;;;5053435;28;20538;-78
2022/01/12 03:05:28;;;;;;;12.37;10.37;;;;;;;;;;5053203;28;20501;-77
2022/01/12 03:07:58;;;;;;;12.43;11.23;;;;;;;;;;5053450;28;20981;-78
2022/01/12 03:10:27;;;;;;;12.70;11.40;;;;;;;;;;5053172;28;20449;-78
2022/01/12 03:12:54;;;;;;;12.13;10.83;;;;;;;;;;5053428;28;20446;-78
2022/01/12 03:15:21;;;;;;;12.33;10.80;;;;;;;;;;5053661;28;20772;-78
2022/01/12 03:17:48;;;;;;;12.53;11.23;;;;;;;;;;5053835;28;20469;-78
2022/01/12 03:20:15;;;;;;;13.60;11.60;;;;;;;;;;5053519;28;20442;-78
2022/01/12 03:22:42;;;;;;;12.00;10.70;;;;;;;;;;5052430;28;20464;-78
2022/01/12 03:25:09;;;;;;;12.50;11.30;;;;;;;;;;5052347;28;21122;-77
2022/01/12 03:27:39;;;;;;;14.23;12.70;;;;;;;;;;5052237;28;20813;-77
2022/01/12 03:30:06;;;;;;;10.50;9.50;;;;;;;;;;5052412;28;20537;-77
2022/01/12 03:32:39;;;;;;;13.93;12.20;;;;;;;;;;5052061;28;20448;-78
2022/01/12 03:35:11;;;;;;;13.27;11.93;;;;;;;;;;5052256;28;20439;-77
2022/01/12 03:38:19;;;;;;;11.97;10.70;;;;;;;;;;5052242;28;20473;-77
2022/01/12 03:40:28;;;;;;;12.70;11.40;;;;;;;;;;5052064;28;20434;-76
2022/01/12 03:42:57;;;;;;;12.43;11.13;;;;;;;;;;5051993;28;20446;-77
2022/01/12 03:45:24;;;;;;;14.70;13.20;;;;;;;;;;5051769;28;20849;-77
2022/01/12 03:47:51;;;;;;;12.97;11.30;;;;;;;;;;5051880;28;20477;-77
2022/01/12 03:50:19;;;;;;;13.53;12.17;;;;;;;;;;5052222;28;20442;-78
2022/01/12 03:52:46;;;;;;;12.10;10.50;;;;;;;;;;5051580;28;20446;-78
2022/01/12 03:55:13;;;;;;;14.30;12.80;;;;;;;;;;5051857;28;20438;-76
2022/01/12 03:57:40;;;;;;;12.20;10.97;;;;;;;;;;5051646;28;20477;-78
2022/01/12 04:00:10;;;;;;;12.20;11.00;;;;;;;;;;5052424;28;20454;-77
2022/01/12 04:02:39;;;;;;;16.00;12.83;;;;;;;;;;5052239;28;20434;-78
2022/01/12 04:05:24;;;;;;;13.23;11.23;;;;;;;;;;5061003;28;20584;-77
2022/01/12 04:10:35;;;;;;;12.40;11.10;;;;;;;;;;5063956;28;20398;-77
2022/01/12 04:13:03;;;;;;;16.50;12.23;;;;;;;;;;5065131;28;20453;-77
2022/01/12 04:15:31;;;;;;;12.63;11.33;;;;;;;;;;5065881;28;20437;-77
2022/01/12 04:17:58;;;;;;;13.73;12.17;;;;;;;;;;5066738;28;20458;-78
2022/01/12 04:20:25;;;;;;;15.30;12.83;;;;;;;;;;5065906;28;20443;-77
2022/01/12 04:25:37;;;;;;;14.77;13.10;;;;;;;;;;5047365;28;20569;-77
2022/01/12 04:28:04;;;;;;;13.47;12.10;;;;;;;;;;5055819;28;20462;-77
2022/01/12 04:30:33;;;;;;;13.27;11.80;;;;;;;;;;5067784;28;20496;-78
2022/01/12 04:33:00;;;;;;;13.20;11.87;;;;;;;;;;5067964;28;20441;-78
2022/01/12 04:35:32;;;;;;;13.60;11.53;;;;;;;;;;5066967;28;20484;-78
2022/01/12 04:37:59;;;;;;;12.63;11.40;;;;;;;;;;5065873;28;20478;-78
2022/01/12 04:40:26;;;;;;;14.60;13.10;;;;;;;;;;5066492;28;20443;-77
2022/01/12 04:42:55;;;;;;;15.50;12.30;;;;;;;;;;5067254;28;20457;-78
2022/01/12 04:45:37;;;;;;;14.67;12.80;;;;;;;;;;5066932;28;20504;-79
2022/01/12 04:48:31;;;;;;;16.30;13.27;;;;;;;;;;5057529;28;20470;-77
2022/01/12 04:50:58;;;;;;;13.23;11.83;;;;;;;;;;5051175;28;20453;-77
2022/01/12 04:53:26;;;;;;;14.80;12.93;;;;;;;;;;5050679;28;20454;-77
2022/01/12 04:55:53;;;;;;;15.83;14.17;;;;;;;;;;5051130;28;20434;-77
2022/01/12 04:58:21;;;;;;;16.30;12.70;;;;;;;;;;5054571;28;21319;-77
2022/01/12 05:00:50;;;;;;;15.07;13.03;;;;;;;;;;5051676;28;20484;-78
2022/01/12 05:09:05;;;;;;;16.53;12.80;;;;;;;;;;5049638;28;20908;-77
2022/01/12 05:14:18;;;;;;;19.57;17.13;;;;;;;;;;5030593;28;20407;-77
2022/01/12 05:16:45;;;;;;;19.83;13.80;;;;;;;;;;5030631;28;20982;-79
2022/01/12 05:19:13;;;;;;;13.30;11.90;;;;;;;;;;5032687;28;20434;-79
2022/01/12 05:21:40;;;;;;;16.70;12.40;;;;;;;;;;5034899;28;20447;-79
2022/01/12 05:24:10;;;;;;;16.67;13.33;;;;;;;;;;5032761;28;20798;-78
2022/01/12 05:26:37;;;;;;;14.57;13.17;;;;;;;;;;5030652;28;20494;-77
2022/01/12 05:29:04;;;;;;;15.60;13.67;;;;;;;;;;5030883;28;20450;-78
2022/01/12 05:31:33;;;;;;;15.43;13.80;;;;;;;;;;5030784;28;20469;-78
2022/01/12 05:34:01;;;;;;;17.00;13.70;;;;;;;;;;5030701;28;20486;-77
2022/01/12 05:36:31;;;;;;;16.10;12.70;;;;;;;;;;5031193;28;20512;-78
2022/01/12 05:38:58;;;;;;;16.13;12.87;;;;;;;;;;5031214;28;20982;-78
2022/01/12 05:41:25;;;;;;;16.43;13.90;;;;;;;;;;5030846;28;20435;-77
2022/01/12 05:43:52;;;;;;;16.20;13.77;;;;;;;;;;5031092;28;20451;-77
2022/01/12 05:46:24;;;;;;;15.03;13.03;;;;;;;;;;5031818;28;20494;-78
2022/01/12 05:51:38;;;;;;;16.20;13.20;;;;;;;;;;5043569;28;20421;-78
2022/01/12 05:54:05;;;;;;;14.90;12.40;;;;;;;;;;5050635;28;20944;-78
2022/01/12 05:56:33;;;;;;;16.93;13.57;;;;;;;;;;5050378;28;20461;-77
2022/01/12 05:59:00;;;;;;;15.77;13.63;;;;;;;;;;5050033;28;20511;-77
2022/01/12 06:01:27;;;;;;;15.33;13.80;;;;;;;;;;5050907;28;20504;-78
2022/01/12 06:03:54;;;;;;;16.23;13.87;;;;;;;;;;5050665;28;20844;-79
2022/01/12 06:06:21;;;;;;;16.60;14.07;;;;;;;;;;5049674;28;20543;-78
2022/01/12 06:08:50;;;;;;;19.07;14.70;;;;;;;;;;5049656;28;20936;-78
2022/01/12 06:11:17;;;;;;;16.27;14.53;;;;;;;;;;5049901;28;20512;-78
2022/01/12 06:13:44;;;;;;;16.87;14.93;;;;;;;;;;5051121;28;20457;-78
2022/01/12 06:16:11;;;;;;;17.40;14.90;;;;;;;;;;5050838;28;20491;-79
2022/01/12 06:18:38;;;;;;;16.13;13.50;;;;;;;;;;5050214;28;20457;-79
2022/01/12 06:21:05;;;;;;;18.27;14.80;;;;;;;;;;5050036;28;20532;-80
2022/01/12 06:23:32;;;;;;;16.97;14.17;;;;;;;;;;5050211;28;20453;-79
2022/01/12 06:26:00;;;;;;;17.17;14.83;;;;;;;;;;5049792;28;20531;-79
2022/01/12 06:28:42;;;;;;;15.10;13.60;;;;;;;;;;5049831;28;20466;-78
2022/01/12 06:31:14;;;;;;;16.40;14.63;;;;;;;;;;5049829;28;20431;-78
2022/01/12 06:33:42;;;;;;;20.77;15.77;;;;;;;;;;5053117;28;20441;-80
2022/01/12 06:36:09;;;;;;;40.30;25.50;;;;;;;;;;5053599;28;20490;-78
2022/01/12 06:38:36;;;;;;;31.40;24.00;;;;;;;;;;5055117;28;20921;-79
2022/01/12 06:41:04;;;;;;;31.90;23.53;;;;;;;;;;5053751;28;20445;-78
2022/01/12 06:43:32;;;;;;;20.57;16.70;;;;;;;;;;5053959;28;20434;-78
2022/01/12 06:45:59;;;;;;;18.67;15.23;;;;;;;;;;5053290;28;20477;-78
2022/01/12 06:48:26;;;;;;;20.40;15.90;;;;;;;;;;5054545;28;20477;-78
2022/01/12 06:50:53;;;;;;;18.37;15.10;;;;;;;;;;5055152;28;20537;-79
2022/01/12 06:53:20;;;;;;;21.23;15.20;;;;;;;;;;5053094;28;20450;-78
2022/01/12 06:55:47;;;;;;;42.20;30.70;;;;;;;;;;5053430;28;20446;-77
2022/01/12 06:58:15;;;;;;;23.97;19.27;;;;;;;;;;5053189;28;21101;-78
2022/01/12 07:00:43;;;;;;;21.13;16.00;;;;;;;;;;5054246;28;20536;-78
2022/01/12 07:03:10;;;;;;;22.53;16.20;;;;;;;;;;5054283;28;20445;-79
2022/01/12 07:05:38;;;;;;;18.40;15.07;;;;;;;;;;5054413;28;20445;-77
2022/01/12 07:08:05;;;;;;;20.87;16.30;;;;;;;;;;5054075;28;20469;-77
2022/01/12 07:10:32;;;;;;;17.47;15.40;;;;;;;;;;5053847;28;20446;-78
2022/01/12 07:12:59;;;;;;;20.10;16.30;;;;;;;;;;5054214;28;20454;-78
2022/01/12 07:15:27;;;;;;;20.70;16.47;;;;;;;;;;5053991;28;20458;-79
2022/01/12 07:17:54;;;;;;;21.40;17.20;;;;;;;;;;5053641;28;20473;-78
2022/01/12 07:20:21;;;;;;;22.40;16.87;;;;;;;;;;5053682;28;20449;-78
2022/01/12 07:22:48;;;;;;;19.40;15.93;;;;;;;;;;5053759;28;20495;-79
2022/01/12 07:25:16;;;;;;;22.70;17.63;;;;;;;;;;5053996;28;21285;-78
2022/01/12 07:27:43;;;;;;;22.70;18.00;;;;;;;;;;5053302;28;20485;-78
2022/01/12 07:30:11;;;;;;;23.10;18.70;;;;;;;;;;5054599;28;20516;-78
2022/01/12 07:32:39;;;;;;;25.90;20.03;;;;;;;;;;5055284;28;20468;-79
2022/01/12 07:35:07;;;;;;;24.30;19.20;;;;;;;;;;5052895;28;20855;-79
2022/01/12 07:37:34;;;;;;;25.80;19.93;;;;;;;;;;5052702;28;20508;-78
2022/01/12 07:40:01;;;;;;;23.53;18.13;;;;;;;;;;5053801;28;20450;-78
2022/01/12 07:42:28;;;;;;;25.03;19.37;;;;;;;;;;5053515;28;20438;-77
2022/01/12 07:45:00;;;;;;;23.97;18.37;;;;;;;;;;5055526;28;20457;-80
2022/01/12 07:47:27;;;;;;;26.50;20.03;;;;;;;;;;5052611;28;20539;-79
2022/01/12 07:49:56;;;;;;;23.37;19.63;;;;;;;;;;5053529;28;20945;-79
2022/01/12 07:52:23;;;;;;;25.07;20.37;;;;;;;;;;5053194;28;20422;-78
2022/01/12 07:54:50;;;;;;;26.60;19.90;;;;;;;;;;5054107;28;20431;-80
2022/01/12 07:57:17;;;;;;;25.10;19.30;;;;;;;;;;5053937;28;20644;-79
2022/01/12 07:59:45;;;;;;;24.50;19.30;;;;;;;;;;5053857;28;20442;-78
2022/01/12 08:02:12;;;;;;;25.30;17.93;;;;;;;;;;5052696;28;20449;-79
2022/01/12 08:04:39;;;;;;;23.07;19.40;;;;;;;;;;5051513;28;20435;-79
2022/01/12 08:07:10;;;;;;;22.77;18.00;;;;;;;;;;5044333;28;20951;-79
2022/01/12 08:09:37;;;;;;;25.37;19.20;;;;;;;;;;5033317;28;20478;-79
2022/01/12 08:12:04;;;;;;;23.67;18.23;;;;;;;;;;5034063;28;20501;-79
2022/01/12 08:14:31;;;;;;;22.43;19.03;;;;;;;;;;5034146;28;20844;-80
2022/01/12 08:16:58;;;;;;;24.83;19.20;;;;;;;;;;5033764;28;20876;-80
2022/01/12 08:19:26;;;;;;;24.67;19.87;;;;;;;;;;5034284;28;20451;-79
2022/01/12 08:21:54;;;;;;;23.53;19.97;;;;;;;;;;5034272;28;20455;-79
2022/01/12 08:24:22;;;;;;;24.77;18.07;;;;;;;;;;5033530;28;20449;-79
2022/01/12 08:26:49;;;;;;;23.03;19.00;;;;;;;;;;5035167;28;20474;-78
2022/01/12 08:29:17;;;;;;;21.23;19.03;;;;;;;;;;5035099;28;20766;-78
2022/01/12 08:31:45;;;;;;;23.27;20.40;;;;;;;;;;5034920;28;20447;-77
2022/01/12 08:34:12;;;;;;;24.10;19.80;;;;;;;;;;5033887;28;20458;-78
2022/01/12 08:36:40;;;;;;;21.00;17.90;;;;;;;;;;5033309;28;21001;-78
2022/01/12 08:39:08;;;;;;;20.80;18.50;;;;;;;;;;5033103;28;20443;-78
2022/01/12 08:41:37;;;;;;;24.97;20.40;;;;;;;;;;5034400;28;20500;-79
2022/01/12 08:44:04;;;;;;;34.97;25.63;;;;;;;;;;5033939;28;20517;-77
2022/01/12 08:46:31;;;;;;;25.97;18.63;;;;;;;;;;5031872;28;20573;-76
2022/01/12 08:48:58;;;;;;;19.37;17.27;;;;;;;;;;5032473;28;20458;-79
2022/01/12 08:51:25;;;;;;;20.67;18.23;;;;;;;;;;5032561;28;20454;-79
2022/01/12 08:53:53;;;;;;;21.80;18.03;;;;;;;;;;5032263;28;20454;-79
2022/01/12 08:56:20;;;;;;;19.70;16.93;;;;;;;;;;5032675;28;20524;-81
2022/01/12 08:58:48;;;;;;;22.43;18.27;;;;;;;;;;5033456;28;20980;-79
2022/01/12 09:01:15;;;;;;;21.20;17.90;;;;;;;;;;5034339;28;21000;-81
2022/01/12 09:03:43;;;;;;;22.80;18.30;;;;;;;;;;5044197;28;20457;-78
2022/01/12 09:06:10;;;;;;;24.20;19.40;;;;;;;;;;5055036;28;20442;-79
2022/01/12 09:08:38;;;;;;;21.70;18.87;;;;;;;;;;5052380;28;20456;-79
2022/01/12 09:11:06;;;;;;;22.73;19.03;;;;;;;;;;5054121;28;20488;-80
2022/01/12 09:13:33;;;;;;;27.00;19.17;;;;;;;;;;5052416;28;20477;-80
2022/01/12 09:16:06;;;;;;;21.67;18.23;;;;;;;;;;5053357;28;20450;-79
2022/01/12 09:18:33;;;;;;;20.10;17.93;;;;;;;;;;5052524;28;20470;-79
2022/01/12 09:21:00;;;;;;;20.90;18.43;;;;;;;;;;5051738;28;20437;-79
2022/01/12 09:23:27;;;;;;;21.87;18.77;;;;;;;;;;5052609;28;20434;-79
2022/01/12 09:25:54;;;;;;;21.50;18.20;;;;;;;;;;5054777;28;20426;-78
2022/01/12 09:28:21;;;;;;;21.33;19.00;;;;;;;;;;5066055;28;20481;-79
2022/01/12 09:30:48;;;;;;;22.70;18.70;;;;;;;;;;5073796;28;20442;-78
2022/01/12 09:33:17;;;;;;;21.67;18.23;;;;;;;;;;5072969;28;20469;-78
2022/01/12 09:35:46;;;;;;;20.10;17.20;;;;;;;;;;5075036;28;20473;-80
2022/01/12 09:38:13;;;;;;;19.70;17.40;;;;;;;;;;5073344;28;21273;-79
2022/01/12 09:40:40;;;;;;;19.30;17.27;;;;;;;;;;5074019;28;20537;-81
2022/01/12 09:43:07;;;;;;;20.03;18.03;;;;;;;;;;5060584;28;20432;-80
2022/01/12 09:45:35;;;;;;;20.13;18.10;;;;;;;;;;5051096;28;20469;-79
2022/01/12 09:48:02;;;;;;;19.10;17.10;;;;;;;;;;5053782;28;20493;-79
2022/01/12 09:50:30;;;;;;;19.20;16.90;;;;;;;;;;5051696;28;20450;-79
2022/01/12 09:52:57;;;;;;;18.50;15.60;;;;;;;;;;5066008;28;20883;-78
2022/01/12 09:55:24;;;;;;;16.37;14.73;;;;;;;;;;5072417;28;20441;-77
2022/01/12 09:57:51;;;;;;;15.20;13.70;;;;;;;;;;5071626;28;20465;-77
2022/01/12 10:00:23;;;;;;;15.10;13.60;;;;;;;;;;5071621;28;20490;-76
2022/01/12 10:02:50;;;;;;;14.77;13.30;;;;;;;;;;5071287;28;20919;-77
2022/01/12 10:05:18;;;;;;;14.17;12.27;;;;;;;;;;5064995;28;20453;-76
2022/01/12 10:07:46;;;;;;;15.27;13.87;;;;;;;;;;5054559;28;20484;-77
2022/01/12 10:10:15;;;;;;;15.23;13.63;;;;;;;;;;5055339;28;20446;-76
2022/01/12 10:12:53;;;;;;;15.20;13.70;;;;;;;;;;5055396;28;20801;-77
2022/01/12 10:15:20;;;;;;;15.30;13.70;;;;;;;;;;5036453;28;20519;-77
2022/01/12 10:17:48;;;;;;;16.30;14.60;;;;;;;;;;5050213;28;20476;-77
2022/01/12 10:20:17;;;;;;;15.43;13.80;;;;;;;;;;5055480;28;20442;-77
2022/01/12 10:22:45;;;;;;;18.07;14.13;;;;;;;;;;5054967;28;20922;-76
2022/01/12 10:25:19;;;;;;;18.17;16.33;;;;;;;;;;5055496;28;20493;-76
2022/01/12 10:27:46;;;;;;;18.37;16.37;;;;;;;;;;5055230;28;20488;-76
2022/01/12 10:30:20;;;;;;;21.87;16.33;;;;;;;;;;5055094;28;20441;-77
2022/01/12 10:32:47;;;;;;;18.23;15.27;;;;;;;;;;5055033;28;20453;-77
2022/01/12 10:35:14;;;;;;;17.57;15.80;;;;;;;;;;5054851;28;21011;-77
2022/01/12 10:37:41;;;;;;;16.43;14.93;;;;;;;;;;5054927;28;20507;-77
2022/01/12 10:40:09;;;;;;;18.53;16.23;;;;;;;;;;5054175;28;20965;-77
2022/01/12 10:42:40;;;;;;;16.87;15.07;;;;;;;;;;5055457;28;20469;-78
2022/01/12 10:45:08;;;;;;;17.47;15.67;;;;;;;;;;5055886;28;20811;-77
2022/01/12 10:47:35;;;;;;;16.17;14.67;;;;;;;;;;5056014;28;20485;-77
2022/01/12 10:50:03;;;;;;;80.27;60.33;;;;;;;;;;5057909;28;20881;-77
2022/01/12 10:52:30;;;;;;;44.00;32.80;;;;;;;;;;5058095;28;20455;-77
2022/01/12 10:54:58;;;;;;;20.23;15.93;;;;;;;;;;5036668;28;20512;-77
2022/01/12 10:57:26;;;;;;;17.03;15.43;;;;;;;;;;5034593;28;20459;-78
2022/01/12 11:00:18;;;;;;;16.90;15.20;;;;;;;;;;5034719;28;20439;-78
2022/01/12 11:02:46;;;;;;;16.13;14.53;;;;;;;;;;5034853;28;20495;-77
2022/01/12 11:05:14;;;;;;;18.27;15.80;;;;;;;;;;5034731;28;20497;-78
2022/01/12 11:07:41;;;;;;;17.60;15.67;;;;;;;;;;5044498;28;20547;-80
2022/01/12 11:10:11;;;;;;;17.07;14.97;;;;;;;;;;5053890;28;20437;-77
2022/01/12 11:12:38;;;;;;;16.67;15.00;;;;;;;;;;5055073;28;20949;-78
2022/01/12 11:15:06;;;;;;;16.20;14.50;;;;;;;;;;5055187;28;20441;-79
2022/01/12 11:17:33;;;;;;;18.50;15.27;;;;;;;;;;5055079;28;20458;-78
2022/01/12 11:20:06;;;;;;;17.33;15.63;;;;;;;;;;5055057;28;20484;-78
2022/01/12 11:22:42;;;;;;;18.50;16.17;;;;;;;;;;5055100;28;20448;-79
2022/01/12 11:25:18;;;;;;;17.73;16.03;;;;;;;;;;5055220;28;20476;-78
2022/01/12 11:27:47;;;;;;;21.27;17.10;;;;;;;;;;5055162;28;20485;-79
2022/01/12 11:30:19;;;;;;;18.17;16.30;;;;;;;;;;5054633;28;20551;-77
2022/01/12 11:32:55;;;;;;;16.53;14.83;;;;;;;;;;5057278;28;20480;-77
2022/01/12 11:35:27;;;;;;;17.80;15.13;;;;;;;;;;5057917;28;20422;-78
2022/01/12 11:37:57;;;;;;;17.17;14.77;;;;;;;;;;5060572;28;20508;-80
2022/01/12 11:40:33;;;;;;;18.10;16.20;;;;;;;;;;5058256;28;20484;-78
2022/01/12 11:43:00;;;;;;;16.37;14.80;;;;;;;;;;5058249;28;21029;-77
2022/01/12 11:45:27;;;;;;;16.63;15.13;;;;;;;;;;5058040;28;20453;-78
2022/01/12 11:47:54;;;;;;;14.87;13.47;;;;;;;;;;5057843;28;20308;-78
2022/01/12 11:50:21;;;;;;;17.00;14.17;;;;;;;;;;5056267;28;20481;-79
2022/01/12 11:52:49;;;;;;;15.20;13.70;;;;;;;;;;5054631;28;20496;-78
2022/01/12 11:55:17;;;;;;;14.23;12.80;;;;;;;;;;5053531;28;20878;-78
2022/01/12 11:57:48;;;;;;;16.67;13.50;;;;;;;;;;5053745;28;20867;-78
2022/01/12 12:00:16;;;;;;;15.70;14.20;;;;;;;;;;5053893;28;20426;-78
2022/01/12 12:02:45;;;;;;;14.77;13.27;;;;;;;;;;5053503;28;20483;-79
2022/01/12 12:05:13;;;;;;;15.10;13.60;;;;;;;;;;5053322;28;20446;-77
2022/01/12 12:07:44;;;;;;;14.60;13.10;;;;;;;;;;5053605;28;20482;-78
2022/01/12 12:10:14;;;;;;;15.40;13.90;;;;;;;;;;5053227;28;20807;-78
2022/01/12 12:12:41;;;;;;;16.53;15.00;;;;;;;;;;5053411;28;20451;-79
2022/01/12 12:15:10;;;;;;;16.53;14.83;;;;;;;;;;5053928;28;20477;-78
2022/01/12 12:17:38;;;;;;;16.67;15.13;;;;;;;;;;5053067;28;20466;-78
2022/01/12 12:20:07;;;;;;;15.83;14.10;;;;;;;;;;5052988;28;20820;-78
2022/01/12 12:22:37;;;;;;;15.57;13.97;;;;;;;;;;5036309;28;20446;-78
2022/01/12 12:25:06;;;;;;;15.80;14.30;;;;;;;;;;5054351;28;20923;-78
2022/01/12 12:27:36;;;;;;;15.60;13.67;;;;;;;;;;5053505;28;20484;-78
2022/01/12 12:30:05;;;;;;;16.83;15.10;;;;;;;;;;5051875;28;20443;-78
2022/01/12 12:32:36;;;;;;;16.73;15.03;;;;;;;;;;5052842;28;20860;-78
2022/01/12 12:35:04;;;;;;;15.40;13.80;;;;;;;;;;5053051;28;20453;-78
2022/01/12 12:37:36;;;;;;;15.17;13.57;;;;;;;;;;5053082;28;20977;-77
2022/01/12 12:40:12;;;;;;;15.17;13.80;;;;;;;;;;5053086;28;20553;-77
2022/01/12 12:42:40;;;;;;;15.00;13.40;;;;;;;;;;5054315;28;20476;-79
2022/01/12 12:45:08;;;;;;;14.20;12.80;;;;;;;;;;5053025;28;20442;-77
2022/01/12 12:47:35;;;;;;;15.90;14.30;;;;;;;;;;5052764;28;20544;-79
2022/01/12 12:50:02;;;;;;;14.07;12.80;;;;;;;;;;5053327;28;20450;-78
2022/01/12 12:52:30;;;;;;;16.07;14.50;;;;;;;;;;5052799;28;20523;-78
2022/01/12 12:54:58;;;;;;;14.43;13.13;;;;;;;;;;5052422;28;20767;-78
2022/01/12 12:57:26;;;;;;;15.97;14.27;;;;;;;;;;5052512;28;20500;-78
2022/01/12 13:00:07;;;;;;;15.70;14.00;;;;;;;;;;5052016;28;20446;-78
2022/01/12 13:02:36;;;;;;;14.73;12.80;;;;;;;;;;5052267;28;21001;-78
2022/01/12 13:05:04;;;;;;;17.03;15.23;;;;;;;;;;5053551;28;20485;-79
2022/01/12 13:07:36;;;;;;;14.50;13.10;;;;;;;;;;5052882;28;20524;-77
2022/01/12 13:10:05;;;;;;;13.87;12.50;;;;;;;;;;5050205;28;20492;-79
2022/01/12 13:12:36;;;;;;;14.40;13.00;;;;;;;;;;5051275;28;20539;-77
2022/01/12 13:15:06;;;;;;;15.20;13.63;;;;;;;;;;5051982;28;20473;-77
2022/01/12 13:17:33;;;;;;;17.13;12.93;;;;;;;;;;5052436;28;20462;-78
2022/01/12 13:22:46;;;;;;;16.03;14.40;;;;;;;;;;5051899;28;20867;-78
2022/01/12 13:25:15;;;;;;;15.23;13.60;;;;;;;;;;5052478;28;20535;-78
2022/01/12 13:27:43;;;;;;;15.43;13.83;;;;;;;;;;5052047;28;20818;-78
2022/01/12 13:30:22;;;;;;;16.23;14.70;;;;;;;;;;5051915;28;20454;-77
2022/01/12 13:32:51;;;;;;;16.63;13.73;;;;;;;;;;5051772;28;20540;-79
2022/01/12 13:35:19;;;;;;;16.23;14.60;;;;;;;;;;5051548;28;20458;-79
2022/01/12 13:37:53;;;;;;;15.40;13.80;;;;;;;;;;5051967;28;20952;-78
2022/01/12 13:40:20;;;;;;;14.93;13.43;;;;;;;;;;5052092;28;20861;-77
2022/01/12 13:42:49;;;;;;;15.57;14.07;;;;;;;;;;5051639;28;20431;-78
2022/01/12 13:45:19;;;;;;;14.20;12.70;;;;;;;;;;5051556;28;20827;-77
2022/01/12 13:47:54;;;;;;;15.97;14.37;;;;;;;;;;5052377;28;20481;-78
2022/01/12 13:50:22;;;;;;;15.50;13.90;;;;;;;;;;5055022;28;20451;-78
2022/01/12 13:52:54;;;;;;;17.07;13.77;;;;;;;;;;5053713;28;20963;-77
2022/01/12 13:55:21;;;;;;;15.33;13.83;;;;;;;;;;5051805;28;20442;-77
2022/01/12 13:57:56;;;;;;;15.80;13.83;;;;;;;;;;5051325;28;20474;-79
2022/01/12 14:00:24;;;;;;;13.80;12.50;;;;;;;;;;5051783;28;20449;-78
2022/01/12 14:02:51;;;;;;;14.43;13.03;;;;;;;;;;5051197;28;20438;-77
2022/01/12 14:05:20;;;;;;;14.90;13.40;;;;;;;;;;5051636;28;20477;-78
2022/01/12 14:08:00;;;;;;;15.20;13.03;;;;;;;;;;5051719;28;20523;-77
2022/01/12 14:10:28;;;;;;;14.80;13.30;;;;;;;;;;5051548;28;20914;-79
2022/01/12 14:12:56;;;;;;;14.87;13.27;;;;;;;;;;5051277;28;20527;-77
2022/01/12 14:15:25;;;;;;;18.03;14.30;;;;;;;;;;5051515;28;20519;-78
2022/01/12 14:17:54;;;;;;;20.63;15.10;;;;;;;;;;5051373;28;20815;-78
2022/01/12 14:20:28;;;;;;;14.80;13.30;;;;;;;;;;5051609;28;20458;-77
2022/01/12 14:22:56;;;;;;;15.83;14.33;;;;;;;;;;5051870;28;20426;-77
2022/01/12 14:25:34;;;;;;;18.97;14.77;;;;;;;;;;5051421;28;20454;-78
2022/01/12 14:28:01;;;;;;;16.43;14.73;;;;;;;;;;5051508;28;20474;-77
2022/01/12 14:30:29;;;;;;;17.37;13.20;;;;;;;;;;5051320;28;20504;-78
2022/01/12 14:32:56;;;;;;;14.93;13.43;;;;;;;;;;5051285;28;20468;-77
2022/01/12 14:35:25;;;;;;;16.00;13.87;;;;;;;;;;5051273;28;20496;-78
2022/01/12 14:37:53;;;;;;;16.73;15.13;;;;;;;;;;5051306;28;20466;-78
2022/01/12 14:40:20;;;;;;;17.30;15.47;;;;;;;;;;5050743;28;20948;-78
2022/01/12 14:42:49;;;;;;;16.40;14.33;;;;;;;;;;5050775;28;20933;-77
2022/01/12 14:45:18;;;;;;;18.43;15.87;;;;;;;;;;5051081;28;20472;-77
2022/01/12 14:47:47;;;;;;;18.27;16.47;;;;;;;;;;5050915;28;21015;-77
2022/01/12 14:50:14;;;;;;;17.60;14.80;;;;;;;;;;5051107;28;20493;-78
2022/01/12 14:52:43;;;;;;;15.67;14.13;;;;;;;;;;5051457;28;20492;-76
2022/01/12 14:55:10;;;;;;;16.57;14.87;;;;;;;;;;5056846;28;20458;-76
2022/01/12 14:57:37;;;;;;;16.47;14.80;;;;;;;;;;5057878;28;20508;-77
2022/01/12 15:00:05;;;;;;;16.63;14.83;;;;;;;;;;5062107;28;20441;-78
2022/01/12 15:02:33;;;;;;;18.23;16.33;;;;;;;;;;5058377;28;20936;-77
2022/01/12 15:05:02;;;;;;;17.63;15.23;;;;;;;;;;5054551;28;20492;-77
2022/01/12 15:07:29;;;;;;;19.07;16.20;;;;;;;;;;5054351;28;20472;-77
2022/01/12 15:09:56;;;;;;;19.07;17.07;;;;;;;;;;5054456;28;20481;-77
2022/01/12 15:12:29;;;;;;;19.93;15.80;;;;;;;;;;5054292;28;20858;-77
2022/01/12 15:15:00;;;;;;;17.13;15.23;;;;;;;;;;5054503;28;20515;-78
2022/01/12 15:17:28;;;;;;;16.67;14.90;;;;;;;;;;5054058;28;20956;-77
2022/01/12 15:19:55;;;;;;;17.60;15.80;;;;;;;;;;5054545;28;20913;-78
2022/01/12 15:22:23;;;;;;;17.57;15.77;;;;;;;;;;5054309;28;20451;-78
2022/01/12 15:24:50;;;;;;;17.90;16.00;;;;;;;;;;5054113;28;20451;-77
2022/01/12 15:27:17;;;;;;;16.50;14.40;;;;;;;;;;5054138;28;20466;-77
2022/01/12 15:29:45;;;;;;;17.37;15.57;;;;;;;;;;5053802;28;20478;-78
2022/01/12 15:32:14;;;;;;;16.40;14.70;;;;;;;;;;5054199;28;20937;-78
2022/01/12 15:34:41;;;;;;;16.23;14.50;;;;;;;;;;5053573;28;20933;-77
2022/01/12 15:37:08;;;;;;;16.70;13.93;;;;;;;;;;5053912;28;20466;-77
2022/01/12 15:39:36;;;;;;;17.33;14.97;;;;;;;;;;5054027;28;20447;-79